A- A+ FrançaisEnglishEspañol中国

最近的 LFPB Paris-Le-Bourget LFPL Logne-Emerainville LFLG Grenoble-Le-Versoud LFNA Gap-Tallard

manche à air

飞行员的航空天气,使用METAR(气象机场报告)进行的飞行准备和TAF(终端机场预报:针对以下情况的短期天气预报)航空)。 以及其他资源,例如VAC(目视进近图)和NOTAM(通知飞行员)以进行预试飞行.

Red Deer Industrial机场 (加拿大) / OACI CYQF/ IATA YQF

Red Deer Industrial机场的高度为905 m=2969 ft. 它位于附近 Red Deer (加拿大). 可提供5天天气预报 Penhold 位于 5.7 km.

METAR Red Deer Industrial机场的 - CYQF

CYQF 150200Z 34006KT 15SM FEW015 BKN040 00/M01 A3015 RMK SC2SC4 SLP250

Red Deer Industrial机场METAR解码 (CA)

CYQF机场发行的METAR日期mardi 15 octobre 2019至02:00 GMT. 警告:此METAR已过期,已于1237分钟前发布.

可见度为24.1 km=15 sm.

温度为0°C=32 °F 露点为-1°C=30 °F 。 这相当于93%的相对湿度。.

QNH是1021 hPa=30.15 inHg

的风6 kt=11 km/h, 风向为340°.

云:处少云1500 ft=460云. 距云4000 ft=1220云.

RMK SC2SC4 SLP250

TAF Red Deer Industrial机场的 - CYQF

CYQF 150015Z 1500/1512 34007KT P6SM SCT015 BKN030 TEMPO 1500/1503 P6SM -SHRA BKN012 FM150300 36005KT P6SM SCT012 BKN025 TEMPO 1503/1506 BKN012 FM150600 VRB03KT P6SM OVC010 TEMPO 1506/1512 4SM BR OVC006 BECMG 1509/1511 16010KT RMK NXT FCST BY 150600Z

CYQF 150015Z 1500/1512 34007KT P6SM 距离015 距云030 暂时 1500/1503 P6SM 光SHRA 距云012 FM150300 36005KT P6SM 距离012 距云025 暂时 1503/1506 距云012 FM150600 VRB03KT P6SM 多云010 暂时 1506/1512 4SM 薄雾 多云006 变得 1509/1511 16010KT 备注 NXT 漏斗云ST BY 150600Z

附近的机场Red Deer Industrial

Penhold的一般天气5天预报 (5.7 km)CYRM Rocky Mountain House机场 (74 km)CYYC Calgary机场 (119 km)CYBW Calgary Springbank机场 (124 km)CYEG Edmonton机场 (127 km)CYBA Banff机场 (157 km)CZVL Edmonton Villeneuve机场 (165 km)

的鸟瞰图

Red Deer Industrial机场的NOTAM

提供的NOTAM不能保证其时事性。 在将其用于飞行准备或在飞行期间使用之前,飞行员是唯一负责验证其有效性的人员。

NOTAM Air/ground facility (从 jeudi 10 octobre 2019 时间上午 09:01 到 vendredi 1er novembre 2019 时间上午 18:00)

L0010/19 NOTAMN
Q) CZEG/QCACS/IV/B/AE/000/125/5211N11354W026
A) CYQF B) 1910100901 C) 1911011800 EST
E) NEW COMMON FREQUENCY AREA (CFA) ADJ TO THE FOLLOWING AIRPORT
AD TFC FREQ (ATF) : CTS6, CSF5, CRE5, CRD5, CRD6, CMH3, CEG3,
CEM4, CSF2.
CONSULT CFS RED DEER VFR TERMINAL PROCEDURE CHARTS.
CREATED: 10 Oct 2019 00:40:00
SOURCE: CYHQYNYX

数据源